Time;durP1;ratioP1;P1;durP2;ratioP2;P2;SDS_P1;SDS_P2;PMS_P1;PMS_P2;Temp;Humidity;BMP_temperature;BMP_pressure;BME280_temperature;BME280_humidity;BME280_pressure;Samples;Min_cycle;Max_cycle;Signal;HPM_P1;HPM_P2
2023/08/07 00:01:09;;;;;;;4.95;2.97;;;14.80;99.90;;;;;;5098001;27;20032;-84
2023/08/07 00:03:35;;;;;;;5.60;3.00;;;14.80;99.90;;;;;;5099926;27;20028;-83
2023/08/07 00:06:03;;;;;;;5.40;3.05;;;14.70;99.90;;;;;;5087287;27;20184;-83
2023/08/07 00:08:31;;;;;;;4.65;3.40;;;14.70;99.90;;;;;;5082831;27;20130;-84
2023/08/07 00:11:10;;;;;;;5.00;3.40;;;14.70;99.90;;;;;;5096845;27;20558;-84
2023/08/07 00:13:36;;;;;;;5.20;3.25;;;14.70;99.90;;;;;;5105738;27;20047;-83
2023/08/07 00:16:05;;;;;;;5.15;3.67;;;14.70;99.90;;;;;;5095916;27;20447;-83
2023/08/07 00:18:33;;;;;;;5.60;3.35;;;14.80;99.90;;;;;;5078265;27;20470;-83
2023/08/07 00:20:59;;;;;;;12.15;4.07;;;14.80;99.90;;;;;;5080525;27;20157;-83
2023/08/07 00:23:25;;;;;;;5.15;3.40;;;14.80;99.90;;;;;;5080727;27;20131;-83
2023/08/07 00:25:51;;;;;;;7.38;3.38;;;14.80;99.90;;;;;;5088482;27;20087;-84
2023/08/07 00:28:16;;;;;;;8.40;3.50;;;14.80;99.90;;;;;;5104513;27;20058;-84
2023/08/07 00:30:42;;;;;;;4.05;3.15;;;14.70;99.90;;;;;;5100694;27;20042;-84
2023/08/07 00:33:08;;;;;;;4.10;2.97;;;14.70;99.90;;;;;;5079793;27;20755;-83
2023/08/07 00:35:33;;;;;;;5.18;3.53;;;14.70;99.90;;;;;;5076385;27;20039;-83
2023/08/07 00:37:59;;;;;;;5.18;3.80;;;14.70;99.90;;;;;;5094374;27;20489;-83
2023/08/07 00:40:25;;;;;;;7.13;3.53;;;14.70;99.90;;;;;;5089768;27;20035;-83
2023/08/07 00:42:50;;;;;;;4.68;3.00;;;14.60;99.90;;;;;;5085701;27;20038;-83
2023/08/07 00:45:17;;;;;;;5.38;3.33;;;14.60;99.90;;;;;;5089479;27;20040;-83
2023/08/07 00:47:43;;;;;;;5.32;3.15;;;14.50;99.90;;;;;;5073511;28;20040;-83
2023/08/07 00:50:11;;;;;;;4.43;2.85;;;14.50;99.90;;;;;;5081966;28;20036;-84
2023/08/07 00:52:37;;;;;;;6.60;3.67;;;14.40;99.90;;;;;;5060428;28;20040;-83
2023/08/07 00:55:03;;;;;;;4.90;3.20;;;14.30;99.90;;;;;;5088596;28;20996;-83
2023/08/07 00:57:32;;;;;;;7.80;3.20;;;14.30;99.90;;;;;;5071154;28;20127;-83
2023/08/07 00:59:59;;;;;;;6.88;3.90;;;14.20;99.90;;;;;;5087651;28;20039;-84
2023/08/07 01:02:25;;;;;;;5.20;3.47;;;14.10;99.90;;;;;;5073394;28;20042;-83
2023/08/07 01:04:53;;;;;;;7.38;3.58;;;14.10;99.90;;;;;;5089977;28;20460;-83
2023/08/07 01:07:28;;;;;;;6.97;3.55;;;14.10;99.90;;;;;;5076173;28;20475;-84
2023/08/07 01:09:56;;;;;;;6.65;3.67;;;14.10;99.90;;;;;;5066047;28;20068;-83
2023/08/07 01:12:29;;;;;;;7.80;3.53;;;14.10;99.90;;;;;;5076380;28;20070;-84
2023/08/07 01:15:20;;;;;;;5.97;3.78;;;14.10;99.90;;;;;;5080061;28;20036;-83
2023/08/07 01:17:47;;;;;;;4.10;3.22;;;14.00;99.90;;;;;;5089664;28;20036;-83
2023/08/07 01:20:13;;;;;;;6.82;3.65;;;14.00;99.90;;;;;;5081096;28;20032;-83
2023/08/07 01:22:39;;;;;;;6.00;3.50;;;14.00;99.90;;;;;;5084765;28;20336;-83
2023/08/07 01:25:05;;;;;;;5.47;3.60;;;14.00;99.90;;;;;;5067519;28;20036;-83
2023/08/07 01:27:44;;;;;;;6.57;4.00;;;14.00;99.90;;;;;;5066636;28;20036;-84
2023/08/07 01:30:48;;;;;;;4.43;3.67;;;13.90;99.90;;;;;;5082978;28;20161;-84
2023/08/07 01:33:32;;;;;;;6.03;4.13;;;13.80;99.90;;;;;;5056676;28;20047;-83
2023/08/07 01:36:01;;;;;;;5.97;3.40;;;13.80;99.90;;;;;;5078922;28;20131;-83
2023/08/07 01:38:28;;;;;;;5.88;4.20;;;13.80;99.90;;;;;;5084527;28;20517;-83
2023/08/07 01:40:54;;;;;;;5.43;4.10;;;13.80;99.90;;;;;;5085095;28;20046;-83
2023/08/07 01:43:29;;;;;;;6.10;3.90;;;13.70;99.90;;;;;;5084040;28;20142;-83
2023/08/07 01:45:55;;;;;;;;;;;13.80;99.90;;;;;;5125102;27;20242;-83
2023/08/07 01:48:20;;;;;;;5.88;4.03;;;13.70;99.90;;;;;;5098965;27;20385;-83
2023/08/07 01:50:46;;;;;;;6.85;3.72;;;13.70;99.90;;;;;;5103184;27;20466;-84
2023/08/07 01:53:12;;;;;;;7.25;3.55;;;13.70;99.90;;;;;;5097697;27;20141;-83
2023/08/07 01:55:41;;;;;;;6.72;3.75;;;13.70;99.90;;;;;;5104896;27;20081;-84
2023/08/07 01:58:06;;;;;;;6.80;3.60;;;13.60;99.90;;;;;;5101537;27;20513;-83
2023/08/07 02:00:32;;;;;;;6.25;2.97;;;13.60;99.90;;;;;;5090461;27;20031;-84
2023/08/07 02:02:58;;;;;;;4.50;3.40;;;13.70;99.90;;;;;;5115077;27;20039;-83
2023/08/07 02:05:23;;;;;;;7.30;3.40;;;13.70;99.90;;;;;;5083702;27;20034;-83
2023/08/07 02:07:49;;;;;;;7.45;3.30;;;13.70;99.90;;;;;;5109006;27;20050;-83
2023/08/07 02:10:14;;;;;;;8.38;3.30;;;13.70;99.90;;;;;;5081102;27;20038;-83
2023/08/07 02:12:41;;;;;;;4.50;2.90;;;13.70;99.90;;;;;;5117333;27;20039;-84
2023/08/07 02:15:07;;;;;;;8.07;3.10;;;13.60;99.90;;;;;;5101878;27;20127;-82
2023/08/07 02:17:32;;;;;;;7.35;3.22;;;13.60;99.90;;;;;;5087788;27;20455;-84
2023/08/07 02:19:58;;;;;;;5.10;2.78;;;13.60;99.90;;;;;;5120623;27;20039;-83
2023/08/07 02:22:26;;;;;;;10.63;3.33;;;13.60;99.90;;;;;;5088192;27;20035;-83
2023/08/07 02:24:55;;;;;;;5.53;3.05;;;13.60;99.90;;;;;;5081621;27;20037;-83
2023/08/07 02:27:21;;;;;;;10.57;4.05;;;13.60;99.90;;;;;;5123563;27;20504;-83
2023/08/07 02:29:46;;;;;;;8.90;3.47;;;13.60;99.90;;;;;;5106032;27;20119;-83
2023/08/07 02:32:16;;;;;;;10.88;3.53;;;13.60;99.90;;;;;;5098504;27;20050;-83
2023/08/07 02:34:41;;;;;;;10.20;3.35;;;13.70;99.90;;;;;;5097836;27;20450;-83
2023/08/07 02:37:07;;;;;;;8.25;3.38;;;13.70;99.90;;;;;;5087314;27;20034;-83
2023/08/07 02:39:32;;;;;;;10.63;3.38;;;13.70;99.90;;;;;;5108428;27;20039;-83
2023/08/07 02:41:58;;;;;;;5.95;3.17;;;13.70;99.90;;;;;;5100758;27;20050;-83
2023/08/07 02:44:24;;;;;;;7.80;3.13;;;13.70;99.90;;;;;;5125856;27;20053;-83
2023/08/07 02:46:50;;;;;;;6.82;2.85;;;13.70;99.90;;;;;;5087617;27;20115;-83
2023/08/07 02:49:15;;;;;;;8.88;3.38;;;13.70;99.90;;;;;;5089000;27;20035;-83
2023/08/07 02:51:41;;;;;;;6.05;2.88;;;13.70;99.90;;;;;;5083632;27;20042;-83
2023/08/07 02:54:07;;;;;;;7.90;2.92;;;13.80;99.90;;;;;;5101670;27;20046;-83
2023/08/07 02:56:33;;;;;;;13.43;3.50;;;13.80;99.90;;;;;;5119091;27;20047;-84
2023/08/07 02:59:02;;;;;;;9.95;3.20;;;13.80;99.90;;;;;;5097174;27;20070;-83
2023/08/07 03:01:28;;;;;;;12.10;3.10;;;13.80;99.90;;;;;;5090226;27;20481;-83
2023/08/07 03:03:54;;;;;;;10.15;2.90;;;13.80;99.90;;;;;;5085921;27;20039;-83
2023/08/07 03:06:20;;;;;;;11.95;3.38;;;13.90;99.90;;;;;;5091925;27;20514;-83
2023/08/07 03:08:45;;;;;;;12.18;3.10;;;13.90;99.90;;;;;;5076067;27;20448;-83
2023/08/07 03:11:11;;;;;;;10.27;3.15;;;13.90;99.90;;;;;;5096142;27;20405;-84
2023/08/07 03:13:36;;;;;;;7.57;2.90;;;13.90;99.90;;;;;;5088721;27;20047;-83
2023/08/07 03:16:06;;;;;;;9.82;3.25;;;14.00;99.90;;;;;;5101533;27;20092;-83
2023/08/07 03:18:32;;;;;;;9.55;2.92;;;14.00;99.90;;;;;;5087496;27;20097;-83
2023/08/07 03:20:58;;;;;;;8.45;2.97;;;13.90;99.90;;;;;;5104968;27;20031;-83
2023/08/07 03:23:25;;;;;;;11.27;3.60;;;14.00;99.90;;;;;;5100495;27;20079;-83
2023/08/07 03:26:01;;;;;;;8.15;2.88;;;14.00;99.90;;;;;;5104978;27;20067;-83
2023/08/07 03:28:26;;;;;;;12.43;3.45;;;14.00;99.90;;;;;;5101032;27;20382;-83
2023/08/07 03:30:52;;;;;;;8.73;2.92;;;14.00;99.90;;;;;;5120614;27;20046;-83
2023/08/07 03:33:17;;;;;;;10.98;3.05;;;14.00;99.90;;;;;;5090796;27;20102;-82
2023/08/07 03:35:43;;;;;;;8.48;2.85;;;14.00;99.90;;;;;;5087025;27;20039;-82
2023/08/07 03:38:09;;;;;;;10.55;2.90;;;14.00;99.90;;;;;;5080274;27;20086;-83
2023/08/07 03:40:34;;;;;;;12.25;3.38;;;14.00;99.90;;;;;;5091736;27;20316;-83
2023/08/07 03:43:00;;;;;;;11.88;3.17;;;13.90;99.90;;;;;;5101085;27;20044;-82
2023/08/07 03:45:25;;;;;;;9.82;2.95;;;13.90;99.90;;;;;;5088125;27;20058;-83
2023/08/07 03:47:51;;;;;;;9.60;3.28;;;13.90;99.90;;;;;;5091772;27;20034;-83
2023/08/07 03:50:17;;;;;;;10.05;2.72;;;13.90;99.90;;;;;;5078081;27;20118;-82
2023/08/07 03:52:42;;;;;;;7.93;2.80;;;14.00;99.90;;;;;;5114684;27;20039;-83
2023/08/07 03:55:08;;;;;;;10.05;3.40;;;14.00;99.90;;;;;;5100248;27;20047;-83
2023/08/07 03:57:34;;;;;;;9.73;2.67;;;14.00;99.90;;;;;;5090733;27;20445;-82
2023/08/07 04:00:00;;;;;;;11.60;3.38;;;14.10;99.90;;;;;;5108041;27;20478;-83
2023/08/07 04:02:25;;;;;;;9.93;2.88;;;14.10;99.90;;;;;;5101453;27;20110;-83
2023/08/07 04:04:51;;;;;;;7.38;2.90;;;14.20;99.90;;;;;;5102216;27;20054;-83
2023/08/07 04:07:22;;;;;;;7.93;3.05;;;14.20;99.90;;;;;;5084477;27;20038;-83
2023/08/07 04:09:48;;;;;;;9.52;3.22;;;14.20;99.90;;;;;;5084923;27;20398;-83
2023/08/07 04:12:13;;;;;;;7.47;3.00;;;14.30;99.90;;;;;;5104962;27;20197;-84
2023/08/07 04:14:39;;;;;;;10.70;3.20;;;14.30;99.90;;;;;;5095193;27;20031;-83
2023/08/07 04:17:05;;;;;;;9.05;3.38;;;14.40;99.90;;;;;;5094797;27;20524;-82
2023/08/07 04:19:30;;;;;;;9.00;3.40;;;14.50;99.90;;;;;;5113142;27;20482;-82
2023/08/07 04:21:56;;;;;;;7.78;3.22;;;14.50;99.90;;;;;;5094197;27;20111;-83
2023/08/07 04:24:22;;;;;;;9.68;2.95;;;14.60;99.90;;;;;;5094166;27;20398;-82
2023/08/07 04:26:48;;;;;;;11.43;3.03;;;14.60;99.90;;;;;;5084132;27;20038;-83
2023/08/07 04:29:13;;;;;;;7.63;2.80;;;14.60;99.90;;;;;;5088837;27;20041;-83
2023/08/07 04:31:42;;;;;;;7.93;2.80;;;14.60;99.90;;;;;;5093488;27;20361;-83
2023/08/07 04:34:08;;;;;;;6.53;2.97;;;14.60;99.90;;;;;;5084622;27;20500;-82
2023/08/07 04:36:34;;;;;;;7.03;2.88;;;14.60;99.90;;;;;;5120340;27;20115;-82
2023/08/07 04:39:08;;;;;;;7.38;2.50;;;14.60;99.90;;;;;;5102192;27;20146;-82
2023/08/07 04:41:34;;;;;;;10.30;2.97;;;14.60;99.90;;;;;;5097649;27;20992;-82
2023/08/07 04:44:02;;;;;;;10.45;2.80;;;14.60;99.90;;;;;;5126818;27;20125;-82
2023/08/07 04:46:28;;;;;;;7.07;2.97;;;14.70;99.90;;;;;;5100682;27;20428;-82
2023/08/07 04:48:58;;;;;;;7.85;2.88;;;14.70;99.90;;;;;;5101573;27;20038;-83
2023/08/07 04:51:24;;;;;;;7.15;3.10;;;14.70;99.90;;;;;;5092774;27;20097;-82
2023/08/07 04:53:50;;;;;;;8.68;3.40;;;14.80;99.90;;;;;;5117344;27;20517;-83
2023/08/07 04:56:22;;;;;;;9.55;2.90;;;14.80;99.90;;;;;;5084430;27;20374;-82
2023/08/07 04:58:47;;;;;;;10.07;3.33;;;14.90;99.90;;;;;;5079660;27;20049;-83
2023/08/07 05:01:13;;;;;;;9.45;3.45;;;14.90;99.90;;;;;;5090666;27;20392;-82
2023/08/07 05:03:39;;;;;;;10.20;3.83;;;14.80;99.90;;;;;;5086711;27;20050;-81
2023/08/07 05:06:05;;;;;;;12.63;3.00;;;14.80;99.90;;;;;;5085213;27;20488;-83
2023/08/07 05:08:31;;;;;;;9.88;2.80;;;14.80;99.90;;;;;;5083915;27;20039;-83
2023/08/07 05:10:57;;;;;;;11.35;2.90;;;14.80;99.90;;;;;;5071883;27;20043;-82
2023/08/07 05:13:22;;;;;;;10.50;2.92;;;14.80;99.90;;;;;;5103713;27;20035;-83
2023/08/07 05:15:48;;;;;;;8.77;2.83;;;14.70;99.90;;;;;;5104313;27;20124;-83
2023/08/07 05:18:15;;;;;;;10.07;3.47;;;14.80;99.90;;;;;;5117158;27;20041;-83
2023/08/07 05:20:40;;;;;;;11.15;3.20;;;14.80;99.90;;;;;;5086712;27;20043;-83
2023/08/07 05:23:06;;;;;;;8.05;3.25;;;14.80;99.90;;;;;;5125256;27;20498;-82
2023/08/07 05:25:32;;;;;;;8.10;3.15;;;14.90;99.90;;;;;;5114756;27;20035;-82
2023/08/07 05:27:58;;;;;;;13.75;3.47;;;14.80;99.90;;;;;;5102566;27;20039;-82
2023/08/07 05:30:23;;;;;;;16.08;3.65;;;14.90;99.90;;;;;;5109113;27;20122;-82
2023/08/07 05:32:52;;;;;;;9.43;3.15;;;14.90;99.90;;;;;;5099266;27;20074;-83
2023/08/07 05:35:17;;;;;;;12.00;3.00;;;14.90;99.90;;;;;;5084475;27;20043;-83
2023/08/07 05:37:43;;;;;;;9.60;3.58;;;15.00;99.90;;;;;;5103405;27;20046;-82
2023/08/07 05:40:11;;;;;;;12.77;3.50;;;14.90;99.90;;;;;;5121308;27;20526;-83
2023/08/07 05:42:41;;;;;;;9.13;3.15;;;14.90;99.90;;;;;;5101953;27;20066;-82
2023/08/07 05:45:08;;;;;;;11.63;3.58;;;15.00;99.90;;;;;;5081790;27;20055;-83
2023/08/07 05:47:33;;;;;;;11.15;3.53;;;15.00;99.90;;;;;;5110963;27;20044;-81
2023/08/07 05:49:59;;;;;;;9.70;3.60;;;15.10;99.90;;;;;;5097438;27;20043;-82
2023/08/07 05:52:24;;;;;;;15.15;4.28;;;15.20;99.90;;;;;;5107078;27;20031;-82
2023/08/07 05:54:50;;;;;;;13.90;4.38;;;15.40;99.90;;;;;;5104671;27;20071;-82
2023/08/07 05:57:18;;;;;;;15.43;4.15;;;15.50;99.90;;;;;;5087646;27;20182;-83
2023/08/07 05:59:43;;;;;;;16.35;3.85;;;15.60;99.90;;;;;;5092416;27;20038;-82
2023/08/07 06:02:11;;;;;;;10.25;3.50;;;15.60;99.90;;;;;;5090966;27;20489;-82
2023/08/07 06:04:38;;;;;;;11.50;3.28;;;15.50;99.90;;;;;;5093122;27;20063;-82
2023/08/07 06:07:04;;;;;;;9.90;3.20;;;15.70;99.90;;;;;;5095153;27;20046;-82
2023/08/07 06:09:30;;;;;;;8.30;3.17;;;15.60;99.90;;;;;;5090370;27;20042;-82
2023/08/07 06:11:56;;;;;;;6.72;2.80;;;15.40;99.90;;;;;;5101900;27;20039;-81
2023/08/07 06:14:22;;;;;;;6.90;2.83;;;15.30;99.90;;;;;;5110982;27;20764;-83
2023/08/07 06:16:48;;;;;;;13.70;2.92;;;15.20;99.90;;;;;;5085161;27;20095;-82
2023/08/07 06:19:13;;;;;;;8.02;2.75;;;15.00;99.90;;;;;;5102278;27;20051;-82
2023/08/07 06:21:39;;;;;;;12.55;3.40;;;15.00;99.90;;;;;;5087803;27;20267;-83
2023/08/07 06:24:05;;;;;;;9.50;3.63;;;15.00;99.90;;;;;;5081495;27;20285;-82
2023/08/07 06:26:30;;;;;;;9.20;2.65;;;15.10;99.90;;;;;;5098099;27;20501;-82
2023/08/07 06:28:56;;;;;;;9.00;3.10;;;15.10;99.90;;;;;;5117723;27;20039;-83
2023/08/07 06:31:22;;;;;;;11.20;3.15;;;15.10;99.90;;;;;;5086026;27;20437;-82
2023/08/07 06:33:49;;;;;;;9.23;3.22;;;15.10;99.90;;;;;;5095912;27;20122;-82
2023/08/07 06:36:15;;;;;;;9.73;3.03;;;15.00;99.90;;;;;;5094306;27;20109;-83
2023/08/07 06:38:45;;;;;;;11.77;2.85;;;15.00;99.90;;;;;;5083381;27;20494;-82
2023/08/07 06:41:10;;;;;;;11.05;3.03;;;15.10;99.90;;;;;;5103351;27;20047;-83
2023/08/07 06:43:39;;;;;;;10.30;2.47;;;15.20;99.90;;;;;;5101983;27;20472;-83
2023/08/07 06:46:05;;;;;;;8.52;2.60;;;15.30;99.90;;;;;;5084174;27;20044;-82
2023/08/07 06:48:31;;;;;;;9.40;2.60;;;15.20;99.90;;;;;;5085040;27;20336;-82
2023/08/07 06:50:57;;;;;;;9.15;2.80;;;15.30;99.90;;;;;;5088122;27;20546;-82
2023/08/07 06:53:22;;;;;;;6.05;2.20;;;15.20;99.90;;;;;;5105808;27;20047;-82
2023/08/07 06:55:48;;;;;;;6.28;2.13;;;15.20;99.90;;;;;;5093889;27;20039;-82
2023/08/07 06:58:14;;;;;;;6.50;2.40;;;15.30;99.90;;;;;;5100583;27;20120;-82
2023/08/07 07:00:39;;;;;;;11.30;2.92;;;15.40;99.90;;;;;;5082271;27;20043;-83
2023/08/07 07:03:05;;;;;;;8.60;2.28;;;15.50;99.90;;;;;;5118651;27;20061;-83
2023/08/07 07:05:42;;;;;;;9.10;2.30;;;15.60;99.90;;;;;;5081681;27;20035;-82
2023/08/07 07:08:08;;;;;;;10.45;3.13;;;15.70;99.90;;;;;;5115671;27;20047;-82
2023/08/07 07:10:34;;;;;;;10.45;2.88;;;15.80;99.90;;;;;;5099785;27;20055;-83
2023/08/07 07:13:00;;;;;;;8.13;3.42;;;15.90;99.90;;;;;;5094389;27;20122;-83
2023/08/07 07:15:25;;;;;;;7.65;2.13;;;16.00;99.90;;;;;;5103462;27;20351;-83
2023/08/07 07:17:55;;;;;;;9.48;2.35;;;15.80;99.90;;;;;;5090545;27;20072;-83
2023/08/07 07:20:24;;;;;;;8.45;2.25;;;15.60;99.90;;;;;;5085138;27;20392;-84
2023/08/07 07:22:50;;;;;;;4.72;1.95;;;15.30;99.90;;;;;;5085668;27;20095;-84
2023/08/07 07:25:16;;;;;;;4.80;1.70;;;15.40;99.90;;;;;;5105000;27;20513;-83
2023/08/07 07:27:41;;;;;;;6.97;1.80;;;15.30;99.90;;;;;;5079802;27;20036;-83
2023/08/07 07:30:07;;;;;;;5.35;1.80;;;15.50;99.90;;;;;;5104193;27;20088;-84
2023/08/07 07:32:33;;;;;;;8.20;2.13;;;15.30;99.90;;;;;;5105356;27;20040;-83
2023/08/07 07:34:59;;;;;;;5.32;2.05;;;15.30;99.90;;;;;;5087350;27;20423;-84
2023/08/07 07:37:24;;;;;;;5.45;1.88;;;15.10;99.90;;;;;;5105198;27;20038;-84
2023/08/07 07:39:50;;;;;;;5.55;2.00;;;15.10;99.90;;;;;;5086948;27;20371;-83
2023/08/07 07:42:16;;;;;;;4.90;2.10;;;15.10;99.90;;;;;;5093353;27;20324;-83
2023/08/07 07:44:41;;;;;;;4.28;1.92;;;15.00;99.90;;;;;;5081407;27;20066;-82
2023/08/07 07:47:08;;;;;;;7.15;2.63;;;14.70;99.90;;;;;;5080552;27;20036;-82
2023/08/07 07:49:33;;;;;;;9.85;2.50;;;14.70;99.90;;;;;;5093121;27;20031;-83
2023/08/07 07:52:00;;;;;;;6.43;2.33;;;14.90;99.90;;;;;;5088298;27;20089;-83
2023/08/07 07:54:25;;;;;;;5.82;2.40;;;14.80;99.90;;;;;;5106862;27;20036;-82
2023/08/07 07:56:51;;;;;;;8.55;2.28;;;15.10;99.90;;;;;;5090685;27;20436;-82
2023/08/07 07:59:17;;;;;;;7.88;3.50;;;15.10;99.90;;;;;;5100791;27;20124;-83
2023/08/07 08:01:42;;;;;;;6.70;2.45;;;15.20;99.90;;;;;;5106863;27;20111;-83
2023/08/07 08:04:09;;;;;;;5.95;2.53;;;15.20;99.90;;;;;;5099453;27;20123;-83
2023/08/07 08:06:40;;;;;;;10.13;2.30;;;15.40;99.90;;;;;;5084539;27;20113;-83
2023/08/07 08:09:08;;;;;;;12.13;2.83;;;15.40;99.90;;;;;;5090072;27;20042;-83
2023/08/07 08:11:33;;;;;;;8.77;2.88;;;15.10;99.90;;;;;;5097427;27;20043;-84
2023/08/07 08:13:59;;;;;;;10.02;2.95;;;14.60;99.90;;;;;;5099567;27;20043;-83
2023/08/07 08:16:25;;;;;;;7.18;2.70;;;14.50;99.90;;;;;;5095225;27;20119;-83
2023/08/07 08:18:50;;;;;;;7.75;2.50;;;14.50;99.90;;;;;;5091336;27;20058;-83
2023/08/07 08:21:16;;;;;;;9.00;2.55;;;14.40;99.90;;;;;;5086274;27;20081;-83
2023/08/07 08:23:42;;;;;;;7.95;2.90;;;14.40;99.90;;;;;;5085634;27;20059;-83
2023/08/07 08:26:07;;;;;;;8.68;2.80;;;14.20;99.90;;;;;;5084741;28;20032;-83
2023/08/07 08:28:33;;;;;;;6.68;2.90;;;14.40;99.90;;;;;;5080781;27;20028;-83
2023/08/07 08:30:58;;;;;;;7.57;3.08;;;14.30;99.90;;;;;;5084699;27;20114;-83
2023/08/07 08:33:24;;;;;;;8.48;3.45;;;14.40;99.90;;;;;;5100001;27;20035;-83
2023/08/07 08:35:50;;;;;;;5.72;3.25;;;14.60;99.90;;;;;;5085439;28;20080;-84
2023/08/07 08:38:16;;;;;;;9.07;3.25;;;14.80;99.90;;;;;;5096632;27;20396;-83
2023/08/07 08:40:43;;;;;;;10.43;2.95;;;14.70;99.90;;;;;;5082510;27;20040;-82
2023/08/07 08:43:11;;;;;;;8.75;2.63;;;14.80;99.90;;;;;;5096450;27;20032;-83
2023/08/07 08:45:39;;;;;;;9.05;3.25;;;14.90;99.90;;;;;;5105382;27;20059;-83
2023/08/07 08:48:07;;;;;;;6.85;3.40;;;14.80;99.90;;;;;;5099060;27;20455;-82
2023/08/07 08:50:35;;;;;;;9.23;2.70;;;15.10;99.90;;;;;;5087880;27;20047;-83
2023/08/07 08:53:04;;;;;;;10.80;2.92;;;15.30;99.90;;;;;;5096315;27;20036;-83
2023/08/07 08:55:30;;;;;;;9.13;2.78;;;15.50;99.90;;;;;;5096592;27;20101;-83
2023/08/07 08:58:00;;;;;;;9.82;3.10;;;15.80;99.90;;;;;;5100429;27;20284;-83
2023/08/07 09:00:28;;;;;;;8.45;2.53;;;16.00;99.90;;;;;;5081091;27;20039;-83
2023/08/07 09:02:54;;;;;;;7.05;2.67;;;16.40;99.90;;;;;;5084958;28;20497;-82
2023/08/07 09:05:20;;;;;;;8.40;2.25;;;16.40;99.90;;;;;;5095177;27;20081;-82
2023/08/07 09:07:48;;;;;;;7.88;1.92;;;16.40;99.90;;;;;;5091562;27;20028;-83
2023/08/07 09:10:17;;;;;;;10.15;2.47;;;16.20;99.90;;;;;;5094997;27;20112;-83
2023/08/07 09:12:59;;;;;;;5.07;2.30;;;16.20;99.90;;;;;;5094497;27;20102;-83
2023/08/07 09:15:27;;;;;;;7.40;2.15;;;16.60;99.90;;;;;;5097533;28;20163;-82
2023/08/07 09:17:55;;;;;;;8.60;2.47;;;16.50;99.90;;;;;;5083829;28;20066;-83
2023/08/07 09:20:22;;;;;;;7.18;2.30;;;16.50;99.90;;;;;;5096974;28;20498;-83
2023/08/07 09:22:48;;;;;;;6.90;1.70;;;16.60;99.90;;;;;;5096917;27;20110;-83
2023/08/07 09:25:14;;;;;;;5.50;1.75;;;16.60;99.90;;;;;;5088370;27;20256;-83
2023/08/07 09:27:41;;;;;;;3.63;2.13;;;16.70;99.90;;;;;;5082729;28;20409;-82
2023/08/07 09:30:10;;;;;;;8.18;2.20;;;16.70;99.90;;;;;;5078454;28;20348;-84
2023/08/07 09:32:36;;;;;;;3.95;1.98;;;16.90;99.90;;;;;;5092512;28;20637;-83
2023/08/07 09:35:04;;;;;;;6.10;1.98;;;17.00;99.90;;;;;;5090705;28;20036;-83
2023/08/07 09:37:30;;;;;;;7.35;1.90;;;17.30;99.90;;;;;;5073969;28;20240;-83
2023/08/07 09:39:57;;;;;;;4.85;2.25;;;17.40;99.90;;;;;;5084840;28;20425;-83
2023/08/07 09:42:22;;;;;;;8.27;1.83;;;17.60;99.90;;;;;;5090050;28;20353;-83
2023/08/07 09:44:48;;;;;;;3.65;1.85;;;17.60;99.90;;;;;;5084025;28;20047;-83
2023/08/07 09:47:16;;;;;;;7.55;2.55;;;17.70;99.90;;;;;;5099025;28;20479;-83
2023/08/07 09:49:43;;;;;;;10.13;2.88;;;17.30;99.90;;;;;;5095652;28;20028;-83
2023/08/07 09:52:16;;;;;;;7.03;2.50;;;16.70;99.90;;;;;;5081763;28;20416;-82
2023/08/07 09:54:42;;;;;;;8.57;2.38;;;16.90;99.90;;;;;;5097949;28;20593;-83
2023/08/07 09:57:07;;;;;;;7.10;2.50;;;17.00;99.90;;;;;;5092357;28;20123;-82
2023/08/07 09:59:34;;;;;;;8.38;2.25;;;17.20;99.90;;;;;;5084516;28;20430;-83
2023/08/07 10:02:02;;;;;;;5.03;2.35;;;17.60;99.90;;;;;;5088888;28;20031;-83
2023/08/07 10:04:31;;;;;;;6.93;1.98;;;17.40;99.90;;;;;;5078178;28;20052;-82
2023/08/07 10:06:58;;;;;;;7.75;2.00;;;17.20;99.90;;;;;;5095517;28;20074;-84
2023/08/07 10:09:24;;;;;;;6.00;1.80;;;16.90;99.90;;;;;;5098186;28;20043;-83
2023/08/07 10:11:50;;;;;;;7.32;2.05;;;16.90;99.90;;;;;;5108592;27;20322;-84
2023/08/07 10:14:17;;;;;;;9.82;2.60;;;17.00;99.90;;;;;;5082446;28;20039;-83
2023/08/07 10:16:43;;;;;;;8.70;2.38;;;16.90;99.90;;;;;;5076344;28;20051;-82
2023/08/07 10:19:09;;;;;;;9.23;2.55;;;16.80;99.90;;;;;;5081819;28;20055;-84
2023/08/07 10:21:39;;;;;;;9.85;2.58;;;16.80;99.90;;;;;;5087379;28;20448;-80
2023/08/07 10:24:07;;;;;;;7.78;2.00;;;16.90;99.90;;;;;;5077245;28;20530;-80
2023/08/07 10:26:34;;;;;;;7.55;2.20;;;16.70;99.90;;;;;;5079941;28;20061;-80
2023/08/07 10:29:04;;;;;;;5.60;2.13;;;16.70;99.90;;;;;;5087412;28;20035;-80
2023/08/07 10:31:33;;;;;;;6.43;2.10;;;16.90;99.90;;;;;;5098880;28;20051;-80
2023/08/07 10:33:59;;;;;;;8.35;2.53;;;17.50;99.90;;;;;;5094829;28;20051;-80
2023/08/07 10:36:36;;;;;;;4.20;2.10;;;17.30;99.90;;;;;;5083036;28;20043;-80
2023/08/07 10:39:09;;;;;;;8.50;2.28;;;16.90;99.90;;;;;;5108224;27;20076;-80
2023/08/07 10:41:44;;;;;;;6.22;2.08;;;16.80;99.90;;;;;;5108729;27;20620;-81
2023/08/07 10:44:30;;;;;;;4.80;2.80;;;16.50;99.90;;;;;;5104066;27;20051;-80
2023/08/07 10:46:57;;;;;;;5.25;2.17;;;16.80;99.90;;;;;;5113438;27;20577;-80
2023/08/07 10:49:34;;;;;;;6.03;2.13;;;17.10;99.90;;;;;;5095141;27;20158;-80
2023/08/07 10:52:12;;;;;;;9.18;2.03;;;17.20;99.90;;;;;;5084224;27;20088;-79
2023/08/07 10:54:45;;;;;;;8.05;2.15;;;17.60;99.90;;;;;;5085311;27;20039;-79
2023/08/07 10:57:15;;;;;;;6.03;1.98;;;17.50;99.90;;;;;;5099471;27;20048;-80
2023/08/07 11:00:05;;;;;;;7.97;2.17;;;17.10;99.90;;;;;;5091773;27;20047;-80
2023/08/07 11:02:33;;;;;;;5.00;1.70;;;16.90;99.90;;;;;;5081156;27;20570;-80
2023/08/07 11:05:03;;;;;;;4.20;1.55;;;17.30;99.90;;;;;;5086507;27;20086;-80
2023/08/07 11:07:30;;;;;;;7.68;1.80;;;17.30;99.90;;;;;;5112545;27;20123;-80
2023/08/07 11:09:57;;;;;;;3.80;1.90;;;18.10;99.90;;;;;;5101397;27;20028;-80
2023/08/07 11:12:29;;;;;;;3.92;1.50;;;17.90;99.90;;;;;;5098580;27;20044;-80
2023/08/07 11:14:58;;;;;;;4.68;1.48;;;18.00;99.90;;;;;;5108100;27;20043;-80
2023/08/07 11:17:28;;;;;;;4.78;1.45;;;17.50;99.90;;;;;;5100128;27;20063;-80
2023/08/07 11:19:55;;;;;;;3.00;1.38;;;17.40;99.90;;;;;;5082888;27;20067;-80
2023/08/07 11:22:21;;;;;;;5.43;1.30;;;17.70;99.90;;;;;;5085620;27;20076;-80
2023/08/07 11:24:47;;;;;;;3.78;1.67;;;18.10;99.90;;;;;;5090203;27;20032;-80
2023/08/07 11:27:13;;;;;;;4.78;1.92;;;17.50;99.90;;;;;;5094411;27;20482;-80
2023/08/07 11:29:38;;;;;;;10.48;1.95;;;17.40;99.90;;;;;;5086729;27;20559;-80
2023/08/07 11:32:05;;;;;;;4.43;1.42;;;17.20;99.90;;;;;;5082104;27;20482;-80
2023/08/07 11:34:31;;;;;;;4.28;1.58;;;17.20;99.90;;;;;;5101245;27;20068;-80
2023/08/07 11:36:57;;;;;;;8.15;1.90;;;17.30;99.90;;;;;;5096750;27;20052;-80
2023/08/07 11:39:24;;;;;;;6.13;1.88;;;17.30;99.90;;;;;;5086331;27;20050;-81
2023/08/07 11:41:54;;;;;;;5.78;1.75;;;17.10;99.90;;;;;;5078237;28;20076;-80
2023/08/07 11:44:20;;;;;;;5.70;1.75;;;17.10;99.90;;;;;;5077692;28;20455;-80
2023/08/07 11:46:46;;;;;;;4.22;1.80;;;17.30;99.90;;;;;;5087003;28;20048;-81
2023/08/07 11:49:12;;;;;;;9.02;2.05;;;17.30;99.90;;;;;;5081058;28;20131;-80
2023/08/07 11:51:38;;;;;;;3.95;2.20;;;17.40;99.90;;;;;;5084472;28;20097;-81
2023/08/07 11:54:04;;;;;;;7.40;2.05;;;17.40;99.90;;;;;;5071580;28;20039;-81
2023/08/07 11:56:33;;;;;;;6.60;2.10;;;17.20;99.90;;;;;;5091855;28;20036;-80
2023/08/07 11:58:58;;;;;;;5.60;1.77;;;17.10;99.90;;;;;;5083916;28;20028;-80
2023/08/07 12:01:26;;;;;;;3.88;1.77;;;16.90;99.90;;;;;;5082311;28;20431;-80
2023/08/07 12:04:08;;;;;;;4.50;1.90;;;16.70;99.90;;;;;;5085193;28;20067;-80
2023/08/07 12:06:35;;;;;;;3.05;1.73;;;16.10;99.90;;;;;;5065958;28;20097;-80
2023/08/07 12:09:02;;;;;;;6.28;2.22;;;15.50;99.90;;;;;;5096897;27;20071;-80
2023/08/07 12:11:35;;;;;;;6.03;1.70;;;15.20;99.90;;;;;;5089591;28;20251;-80
2023/08/07 12:14:03;;;;;;;4.38;2.10;;;15.50;99.90;;;;;;5099787;27;20112;-80
2023/08/07 12:16:33;;;;;;;9.30;2.35;;;15.40;99.90;;;;;;5067320;28;20538;-80
2023/08/07 12:18:59;;;;;;;10.60;2.70;;;15.40;99.90;;;;;;5064310;28;20238;-80
2023/08/07 12:21:27;;;;;;;8.15;2.40;;;15.10;99.90;;;;;;5066710;28;20143;-80
2023/08/07 12:23:56;;;;;;;4.60;2.30;;;15.00;99.90;;;;;;5089721;28;20466;-80
2023/08/07 12:26:25;;;;;;;7.40;2.30;;;14.60;99.90;;;;;;5087062;28;20390;-80
2023/08/07 12:28:50;;;;;;;7.00;2.20;;;14.60;99.90;;;;;;5086115;28;20047;-78
2023/08/07 12:31:17;;;;;;;5.07;2.13;;;14.30;99.90;;;;;;5083922;28;20039;-79
2023/08/07 12:33:43;;;;;;;4.50;1.80;;;14.40;99.90;;;;;;5084622;28;20084;-79
2023/08/07 12:36:10;;;;;;;4.50;1.92;;;14.50;99.90;;;;;;5085200;28;20040;-79
2023/08/07 12:38:41;;;;;;;5.20;1.92;;;15.10;99.90;;;;;;5066403;28;20044;-79
2023/08/07 12:41:07;;;;;;;4.63;1.85;;;15.70;99.90;;;;;;5086970;28;20035;-79
2023/08/07 12:43:33;;;;;;;5.10;2.10;;;15.90;99.90;;;;;;5071629;28;20039;-79
2023/08/07 12:46:02;;;;;;;8.23;2.45;;;16.40;99.90;;;;;;5084375;28;20047;-79